Time;durP1;ratioP1;P1;durP2;ratioP2;P2;SDS_P1;SDS_P2;PMS_P1;PMS_P2;Temp;Humidity;BMP_temperature;BMP_pressure;BME280_temperature;BME280_humidity;BME280_pressure;Samples;Min_cycle;Max_cycle;Signal;HPM_P1;HPM_P2
2022/01/11 00:00:38;;;;;;;9.82;4.35;;;;;;;5.56;100.00;102422.69;4979789;28;20097;-70
2022/01/11 00:03:14;;;;;;;6.65;3.90;;;;;;;5.50;100.00;102434.47;4981394;28;20121;-69
2022/01/11 00:08:08;;;;;;;7.57;3.38;;;;;;;5.72;100.00;102420.72;4987431;28;20048;-70
2022/01/11 00:10:46;;;;;;;9.15;3.70;;;;;;;5.59;100.00;102422.16;4987489;28;20057;-69
2022/01/11 00:13:11;;;;;;;10.25;3.78;;;;;;;5.56;100.00;102413.88;4984603;28;20506;-69
2022/01/11 00:15:37;;;;;;;9.45;3.72;;;;;;;5.48;100.00;102424.06;4990512;28;20076;-69
2022/01/11 00:18:03;;;;;;;5.50;2.95;;;;;;;5.44;100.00;102423.03;4990524;28;20134;-69
2022/01/11 00:20:28;;;;;;;8.57;3.95;;;;;;;5.45;100.00;102419.28;4982194;28;20074;-69
2022/01/11 00:25:27;;;;;;;7.25;3.08;;;;;;;5.61;100.00;102416.53;4990862;28;20430;-70
2022/01/11 00:27:52;;;;;;;9.75;3.00;;;;;;;5.57;100.00;102418.16;4983576;28;20081;-69
2022/01/11 00:30:19;;;;;;;7.32;3.40;;;;;;;5.48;100.00;102436.63;4996155;28;20034;-70
2022/01/11 00:32:50;;;;;;;6.90;3.38;;;;;;;5.42;100.00;102427.84;4970619;28;20058;-69
2022/01/11 00:35:16;;;;;;;8.13;3.70;;;;;;;5.42;100.00;102433.19;4985136;28;20105;-70
2022/01/11 00:37:42;;;;;;;5.07;2.70;;;;;;;5.48;100.00;102436.63;4984957;28;20100;-69
2022/01/11 00:40:09;;;;;;;6.85;3.17;;;;;;;5.44;100.00;102443.59;5002179;28;20069;-69
2022/01/11 00:42:35;;;;;;;5.05;2.80;;;;;;;5.41;100.00;102444.16;4981678;28;20525;-69
2022/01/11 00:45:05;;;;;;;5.90;3.22;;;;;;;5.34;100.00;102441.78;4992222;28;20030;-70
2022/01/11 00:47:31;;;;;;;9.15;3.65;;;;;;;5.42;100.00;102445.75;4987297;28;20069;-70
2022/01/11 00:49:56;;;;;;;10.55;3.55;;;;;;;5.38;100.00;102452.72;5005143;28;20454;-69
2022/01/11 00:52:28;;;;;;;7.65;3.00;;;;;;;5.37;100.00;102443.09;4979519;28;20126;-69
2022/01/11 00:54:55;;;;;;;7.05;2.97;;;;;;;5.29;100.00;102449.81;4991382;28;20026;-69
2022/01/11 00:57:21;;;;;;;7.53;3.92;;;;;;;5.27;100.00;102453.84;4986011;28;20092;-69
2022/01/11 00:59:47;;;;;;;5.93;2.35;;;;;;;5.28;100.00;102461.56;4970730;28;20039;-69
2022/01/11 01:02:15;;;;;;;7.07;2.17;;;;;;;5.31;100.00;102462.91;4983894;28;20042;-69
2022/01/11 01:04:41;;;;;;;9.40;3.10;;;;;;;5.37;100.00;102467.16;4988288;28;20030;-69
2022/01/11 01:07:07;;;;;;;7.25;3.22;;;;;;;5.28;100.00;102472.25;4979237;28;20082;-69
2022/01/11 01:09:54;;;;;;;7.00;3.28;;;;;;;5.44;100.00;102465.75;4976312;28;20030;-69
2022/01/11 01:12:20;;;;;;;5.47;2.95;;;;;;;5.36;100.00;102477.03;4992943;28;20022;-69
2022/01/11 01:14:46;;;;;;;6.82;3.35;;;;;;;5.30;100.00;102472.00;4989719;28;20031;-69
2022/01/11 01:17:11;;;;;;;6.43;2.83;;;;;;;5.29;100.00;102473.06;4970578;28;20542;-70
2022/01/11 01:19:37;;;;;;;9.57;4.07;;;;;;;5.38;100.00;102474.09;4987140;28;20069;-69
2022/01/11 01:22:05;;;;;;;6.95;3.65;;;;;;;5.31;100.00;102482.41;4975952;28;20079;-69
2022/01/11 01:24:31;;;;;;;4.50;2.72;;;;;;;5.30;100.00;102477.34;4983833;28;20117;-69
2022/01/11 01:26:56;;;;;;;8.23;3.20;;;;;;;5.22;100.00;102486.72;4988011;28;20121;-69
2022/01/11 01:29:22;;;;;;;11.52;4.00;;;;;;;5.25;100.00;102493.38;4997126;28;20034;-69
2022/01/11 01:31:47;;;;;;;9.30;3.05;;;;;;;5.28;100.00;102482.94;4996122;28;20034;-69
2022/01/11 01:34:13;;;;;;;5.72;3.08;;;;;;;5.32;100.00;102489.31;4987249;28;20046;-69
2022/01/11 01:36:38;;;;;;;4.63;2.80;;;;;;;5.40;100.00;102491.44;5001196;28;20046;-70
2022/01/11 01:39:04;;;;;;;7.57;2.70;;;;;;;5.26;100.00;102492.31;4993678;28;20031;-70
2022/01/11 01:41:30;;;;;;;10.25;3.08;;;;;;;5.32;100.00;102492.00;4993825;28;20410;-69
2022/01/11 01:43:59;;;;;;;8.82;3.97;;;;;;;5.37;100.00;102497.34;4993938;28;20038;-69
2022/01/11 01:46:25;;;;;;;6.82;3.17;;;;;;;5.19;100.00;102497.94;4983524;28;20042;-69
2022/01/11 01:48:51;;;;;;;11.77;3.92;;;;;;;5.22;100.00;102494.72;4992911;28;20498;-69
2022/01/11 01:51:17;;;;;;;6.18;3.08;;;;;;;5.32;100.00;102497.34;4988715;28;20039;-69
2022/01/11 01:53:46;;;;;;;7.90;3.10;;;;;;;5.31;100.00;102498.41;4984371;28;20039;-69
2022/01/11 01:56:12;;;;;;;9.15;3.53;;;;;;;5.24;100.00;102497.94;4988390;28;20059;-69
2022/01/11 01:58:37;;;;;;;10.27;3.60;;;;;;;5.15;100.00;102496.88;4988797;28;20030;-69
2022/01/11 02:01:04;;;;;;;8.55;3.60;;;;;;;5.24;100.00;102503.25;4988470;28;20034;-69
2022/01/11 02:03:39;;;;;;;7.32;3.08;;;;;;;5.15;100.00;102509.44;4994499;28;20151;-69
2022/01/11 02:06:16;;;;;;;5.78;3.05;;;;;;;5.20;100.00;102512.91;4992399;28;20620;-69
2022/01/11 02:08:44;;;;;;;7.30;3.40;;;;;;;5.25;100.00;102512.88;4987307;28;20156;-69
2022/01/11 02:11:10;;;;;;;8.15;3.08;;;;;;;5.12;100.00;102526.78;4989316;28;20440;-69
2022/01/11 02:13:38;;;;;;;8.63;3.85;;;;;;;5.14;100.00;102519.31;4968332;28;20034;-69
2022/01/11 02:16:05;;;;;;;7.75;3.92;;;;;;;5.14;100.00;102526.53;4982015;28;20550;-69
2022/01/11 02:18:32;;;;;;;10.18;3.70;;;;;;;5.19;100.00;102515.81;4992054;28;20022;-69
2022/01/11 02:21:04;;;;;;;6.35;2.75;;;;;;;5.21;100.00;102514.47;4994684;28;20114;-69
2022/01/11 02:23:33;;;;;;;7.78;4.07;;;;;;;5.30;100.00;102512.81;4990592;28;20041;-69
2022/01/11 02:26:00;;;;;;;7.93;3.15;;;;;;;5.21;100.00;102511.00;4996710;28;20035;-69
2022/01/11 02:28:27;;;;;;;6.50;3.22;;;;;;;5.22;100.00;102523.28;4987897;28;20041;-69
2022/01/11 02:30:55;;;;;;;9.43;3.15;;;;;;;5.17;100.00;102526.78;4999588;28;20060;-70
2022/01/11 02:33:44;;;;;;;8.60;4.53;;;;;;;5.22;100.00;102523.28;4975441;28;20090;-69
2022/01/11 02:36:30;;;;;;;7.97;3.25;;;;;;;5.16;100.00;102521.72;4974438;28;20049;-69
2022/01/11 02:38:58;;;;;;;8.65;3.40;;;;;;;5.12;100.00;102523.31;4992288;28;20061;-69
2022/01/11 02:41:27;;;;;;;10.40;3.70;;;;;;;5.11;100.00;102521.72;4991716;28;20042;-70
2022/01/11 02:43:54;;;;;;;7.25;3.22;;;;;;;5.14;100.00;102526.53;4991879;28;20034;-69
2022/01/11 02:46:22;;;;;;;8.00;3.75;;;;;;;5.16;100.00;102535.88;4987766;28;20038;-69
2022/01/11 02:48:52;;;;;;;9.63;3.38;;;;;;;5.17;100.00;102532.09;5001906;28;20042;-69
2022/01/11 02:51:18;;;;;;;12.52;4.47;;;;;;;5.17;100.00;102523.28;4978835;28;20391;-69
2022/01/11 02:53:50;;;;;;;10.48;4.00;;;;;;;5.15;100.00;102528.91;4985627;28;20069;-69
2022/01/11 02:56:17;;;;;;;12.07;3.70;;;;;;;5.19;100.00;102535.31;4992004;28;20026;-69
2022/01/11 02:58:44;;;;;;;10.23;3.67;;;;;;;5.20;100.00;102541.47;4990856;28;20048;-69
2022/01/11 03:01:10;;;;;;;7.78;3.75;;;;;;;5.23;100.00;102541.72;4974545;28;20376;-70
2022/01/11 03:03:37;;;;;;;7.65;3.92;;;;;;;5.30;100.00;102536.88;4986466;28;20538;-69
2022/01/11 03:06:04;;;;;;;11.77;4.43;;;;;;;5.24;100.00;102543.31;5007127;28;20387;-69
2022/01/11 03:08:39;;;;;;;7.57;3.35;;;;;;;5.37;100.00;102537.41;4990086;28;20030;-69
2022/01/11 03:11:06;;;;;;;9.52;3.58;;;;;;;5.27;100.00;102537.44;4990418;28;20530;-69
2022/01/11 03:13:35;;;;;;;8.77;3.53;;;;;;;5.37;100.00;102547.28;4983273;28;20080;-69
2022/01/11 03:16:01;;;;;;;9.50;3.92;;;;;;;5.26;100.00;102551.88;4995990;28;20613;-69
2022/01/11 03:18:26;;;;;;;6.22;3.25;;;;;;;5.23;100.00;102541.72;4972555;28;20078;-69
2022/01/11 03:20:53;;;;;;;7.15;3.33;;;;;;;5.23;100.00;102539.03;4986208;28;20495;-69
2022/01/11 03:23:26;;;;;;;6.38;3.45;;;;;;;5.33;100.00;102543.53;4996939;28;20035;-69
2022/01/11 03:25:53;;;;;;;12.93;3.05;;;;;;;5.27;100.00;102542.75;4999277;28;20533;-69
2022/01/11 03:28:20;;;;;;;7.57;3.63;;;;;;;5.22;100.00;102545.47;4986956;28;20031;-69
2022/01/11 03:30:47;;;;;;;13.98;4.13;;;;;;;5.24;100.00;102539.84;5005665;28;20026;-69
2022/01/11 03:33:14;;;;;;;12.68;4.13;;;;;;;5.21;100.00;102541.19;4990569;28;20087;-69
2022/01/11 03:35:45;;;;;;;9.55;3.50;;;;;;;5.21;100.00;102535.03;4981552;28;20034;-70
2022/01/11 03:38:12;;;;;;;9.27;3.20;;;;;;;5.20;100.00;102542.25;4985623;28;20384;-70
2022/01/11 03:40:40;;;;;;;14.45;4.35;;;;;;;5.21;100.00;102543.84;4982136;28;20049;-68
2022/01/11 03:43:07;;;;;;;7.95;3.58;;;;;;;5.14;100.00;102554.03;4989367;28;20034;-69
2022/01/11 03:45:34;;;;;;;14.35;3.80;;;;;;;5.05;100.00;102555.63;4989905;28;20040;-69
2022/01/11 03:48:06;;;;;;;7.65;3.90;;;;;;;5.10;100.00;102550.28;4991686;28;20114;-69
2022/01/11 03:50:33;;;;;;;11.07;4.05;;;;;;;5.13;100.00;102556.97;4990596;28;20035;-69
2022/01/11 03:53:12;;;;;;;8.30;3.55;;;;;;;5.06;100.00;102557.25;4982933;28;20042;-69
2022/01/11 03:58:12;;;;;;;7.43;2.85;;;;;;;5.20;100.00;102558.28;5006784;28;20026;-69
2022/01/11 04:00:37;;;;;;;10.50;3.78;;;;;;;5.22;100.00;102561.47;4991161;28;20041;-69
2022/01/11 04:03:04;;;;;;;12.68;2.97;;;;;;;5.20;100.00;102562.81;4975499;28;20427;-69
2022/01/11 04:05:30;;;;;;;6.25;3.17;;;;;;;5.16;100.00;102565.22;4982240;28;20064;-69
2022/01/11 04:07:55;;;;;;;8.10;3.80;;;;;;;5.16;100.00;102559.09;4992507;28;20467;-69
2022/01/11 04:10:21;;;;;;;11.77;4.15;;;;;;;5.19;100.00;102562.00;4963746;28;20928;-69
2022/01/11 04:12:48;;;;;;;15.65;3.85;;;;;;;5.23;100.00;102563.06;4977694;28;20491;-69
2022/01/11 04:15:14;;;;;;;8.02;3.33;;;;;;;5.15;100.00;102565.50;4990974;28;20069;-69
2022/01/11 04:17:40;;;;;;;7.78;3.78;;;;;;;5.11;100.00;102570.56;5007306;28;20048;-69
2022/01/11 04:20:07;;;;;;;13.80;3.70;;;;;;;5.21;100.00;102564.41;4989795;28;20656;-69
2022/01/11 04:22:33;;;;;;;12.35;4.07;;;;;;;5.14;100.00;102567.38;4973379;28;20027;-70
2022/01/11 04:24:59;;;;;;;6.57;3.10;;;;;;;5.08;100.00;102565.78;4980708;28;20515;-69
2022/01/11 04:27:25;;;;;;;11.82;3.70;;;;;;;5.12;100.00;102569.50;4978463;28;20066;-69
2022/01/11 04:29:50;;;;;;;6.45;3.15;;;;;;;5.12;100.00;102568.72;4982418;28;20436;-69
2022/01/11 04:32:17;;;;;;;8.27;3.85;;;;;;;5.03;100.00;102567.66;4982979;28;20038;-69
2022/01/11 04:34:42;;;;;;;12.05;3.22;;;;;;;5.14;100.00;102564.72;4975752;28;20454;-69
2022/01/11 04:37:10;;;;;;;12.52;3.90;;;;;;;5.14;100.00;102570.03;4989050;28;20037;-69
2022/01/11 04:39:36;;;;;;;7.18;3.58;;;;;;;5.18;100.00;102567.63;4987860;28;20038;-69
2022/01/11 04:42:03;;;;;;;9.13;4.20;;;;;;;5.24;100.00;102569.22;4984213;28;20081;-69
2022/01/11 04:44:28;;;;;;;10.55;3.50;;;;;;;5.10;100.00;102566.31;4982846;28;20129;-70
2022/01/11 04:46:54;;;;;;;10.55;3.53;;;;;;;5.23;100.00;102562.25;4982458;28;20113;-69
2022/01/11 04:49:20;;;;;;;7.50;4.32;;;;;;;5.08;100.00;102565.78;4990336;28;20113;-69
2022/01/11 04:51:46;;;;;;;9.70;3.40;;;;;;;5.14;100.00;102575.38;4985087;28;20042;-69
2022/01/11 04:54:15;;;;;;;13.13;3.58;;;;;;;5.19;100.00;102582.56;4985483;28;20053;-69
2022/01/11 04:56:41;;;;;;;13.95;4.20;;;;;;;5.14;100.00;102572.72;4987730;28;20690;-68
2022/01/11 04:59:07;;;;;;;5.95;2.92;;;;;;;5.12;100.00;102577.53;4989406;28;20034;-69
2022/01/11 05:01:34;;;;;;;8.52;3.08;;;;;;;5.09;100.00;102572.72;4981588;28;20494;-69
2022/01/11 05:04:00;;;;;;;12.82;3.75;;;;;;;5.19;100.00;102578.03;4990695;28;20045;-69
2022/01/11 05:06:28;;;;;;;7.90;3.22;;;;;;;5.19;100.00;102577.22;4976631;28;20037;-70
2022/01/11 05:08:54;;;;;;;10.63;4.78;;;;;;;5.13;100.00;102571.09;4985163;28;20093;-69
2022/01/11 05:11:22;;;;;;;10.25;4.07;;;;;;;5.21;100.00;102581.22;4986568;28;20498;-68
2022/01/11 05:13:48;;;;;;;8.18;3.75;;;;;;;5.08;100.00;102576.47;4989775;28;20034;-69
2022/01/11 05:16:36;;;;;;;10.30;4.40;;;;;;;5.15;100.00;102576.97;4991370;28;20087;-69
2022/01/11 05:19:02;;;;;;;9.98;3.85;;;;;;;5.05;100.00;102576.97;4977906;23;20121;-70
2022/01/11 05:21:29;;;;;;;15.00;5.25;;;;;;;5.15;100.00;102568.97;4961773;28;20046;-70
2022/01/11 05:23:54;;;;;;;12.88;4.10;;;;;;;5.17;100.00;102576.69;4965115;28;20039;-70
2022/01/11 05:26:21;;;;;;;10.73;3.55;;;;;;;5.09;100.00;102574.59;4968672;28;20113;-70
2022/01/11 05:28:46;;;;;;;13.98;4.55;;;;;;;5.20;100.00;102578.84;4956921;28;20083;-70
2022/01/11 05:31:12;;;;;;;12.63;4.25;;;;;;;5.20;100.00;102587.66;4962703;28;20030;-70
2022/01/11 05:33:37;;;;;;;12.45;3.90;;;;;;;5.19;100.00;102583.38;4949776;28;20454;-70
2022/01/11 05:36:03;;;;;;;11.20;4.22;;;;;;;5.15;100.00;102592.22;4935608;29;20498;-70
2022/01/11 05:38:29;;;;;;;14.27;4.07;;;;;;;5.23;100.00;102589.78;4950850;28;20032;-70
2022/01/11 05:40:56;;;;;;;10.93;4.07;;;;;;;5.23;100.00;102591.63;4947798;28;20079;-70
2022/01/11 05:43:22;;;;;;;14.23;4.18;;;;;;;5.10;100.00;102584.19;4932870;29;20118;-71
2022/01/11 05:45:48;;;;;;;12.82;4.55;;;;;;;5.34;100.00;102598.56;4952778;28;20509;-71
2022/01/11 05:48:17;;;;;;;13.00;4.25;;;;;;;5.21;100.00;102594.59;4941618;28;20043;-70
2022/01/11 05:50:43;;;;;;;13.88;4.53;;;;;;;5.10;100.00;102598.34;4950648;28;20058;-70
2022/01/11 05:53:11;;;;;;;11.65;4.07;;;;;;;5.10;100.00;102590.34;4950056;28;20098;-69
2022/01/11 05:55:36;;;;;;;11.95;3.85;;;;;;;5.12;100.00;102600.75;4952595;28;20031;-69
2022/01/11 05:58:05;;;;;;;16.15;4.15;;;;;;;5.07;100.00;102600.78;4946412;28;20031;-69
2022/01/11 06:00:31;;;;;;;15.05;4.65;;;;;;;5.09;100.00;102604.75;4974127;28;20065;-69
2022/01/11 06:02:58;;;;;;;13.50;4.20;;;;;;;5.15;100.00;102608.22;4958409;28;20031;-69
2022/01/11 06:05:38;;;;;;;12.43;4.45;;;;;;;5.28;100.00;102605.78;4947563;28;20045;-70
2022/01/11 06:08:06;;;;;;;10.18;3.60;;;;;;;5.18;100.00;102611.16;4980729;28;20026;-69
2022/01/11 06:10:32;;;;;;;9.65;3.85;;;;;;;5.12;100.00;102604.22;4949912;28;20031;-70
2022/01/11 06:12:58;;;;;;;11.48;4.03;;;;;;;5.21;100.00;102609.78;4954679;28;20039;-69
2022/01/11 06:15:26;;;;;;;11.38;4.03;;;;;;;5.21;100.00;102612.47;4973457;28;20696;-69
2022/01/11 06:17:52;;;;;;;15.82;3.90;;;;;;;5.18;100.00;102608.50;4986760;28;20026;-69
2022/01/11 06:20:17;;;;;;;11.93;3.70;;;;;;;5.30;100.00;102606.31;4977163;28;20043;-69
2022/01/11 06:22:43;;;;;;;11.00;3.83;;;;;;;5.22;100.00;102614.91;4949167;28;20102;-69
2022/01/11 06:25:09;;;;;;;10.70;3.13;;;;;;;5.26;100.00;102609.81;4953325;28;20031;-69
2022/01/11 06:27:40;;;;;;;11.85;3.83;;;;;;;5.25;100.00;102613.53;4921767;29;20047;-69
2022/01/11 06:30:08;;;;;;;14.03;4.03;;;;;;;5.12;100.00;102617.56;4960313;28;20063;-69
2022/01/11 06:32:36;;;;;;;15.73;5.35;;;;;;;5.17;100.00;102616.75;4979452;28;20309;-69
2022/01/11 06:35:06;;;;;;;16.00;5.10;;;;;;;5.32;100.00;102622.09;4982264;28;20054;-69
2022/01/11 06:37:31;;;;;;;8.73;3.35;;;;;;;5.24;100.00;102620.75;4946300;29;20028;-70
2022/01/11 06:39:57;;;;;;;13.60;4.07;;;;;;;5.21;100.00;102618.63;4937359;29;20452;-69
2022/01/11 06:42:23;;;;;;;11.57;4.07;;;;;;;5.20;100.00;102624.22;4974394;28;20070;-69
2022/01/11 06:44:50;;;;;;;11.88;3.88;;;;;;;5.19;100.00;102614.59;4952891;29;20527;-69
2022/01/11 06:47:15;;;;;;;8.68;4.32;;;;;;;5.13;100.00;102623.72;4985905;28;20031;-69
2022/01/11 06:49:41;;;;;;;8.40;3.70;;;;;;;5.11;100.00;102623.19;4950358;29;20575;-69
2022/01/11 06:52:07;;;;;;;20.08;4.90;;;;;;;4.99;100.00;102620.81;4939998;28;20125;-69
2022/01/11 06:54:36;;;;;;;12.48;4.53;;;;;;;4.94;100.00;102628.78;4953016;28;20037;-69
2022/01/11 06:57:03;;;;;;;12.65;4.50;;;;;;;5.03;100.00;102632.50;4969435;28;20039;-69
2022/01/11 06:59:28;;;;;;;12.32;4.45;;;;;;;5.00;100.00;102630.41;4958931;28;20038;-69
2022/01/11 07:01:58;;;;;;;11.45;4.15;;;;;;;5.00;100.00;102637.59;4961119;28;20584;-69
2022/01/11 07:04:37;;;;;;;10.63;3.20;;;;;;;5.13;100.00;102645.84;4958418;28;20043;-69
2022/01/11 07:07:05;;;;;;;15.23;4.40;;;;;;;5.01;100.00;102645.34;4941237;28;20093;-69
2022/01/11 07:09:31;;;;;;;10.23;3.65;;;;;;;5.01;100.00;102645.34;4983425;28;20058;-69
2022/01/11 07:11:57;;;;;;;13.70;3.83;;;;;;;4.99;100.00;102642.16;4953677;28;20443;-69
2022/01/11 07:14:22;;;;;;;7.15;3.33;;;;;;;4.89;100.00;102644.81;4949991;28;20059;-69
2022/01/11 07:16:48;;;;;;;15.48;4.25;;;;;;;4.90;100.00;102641.06;4951218;28;20040;-69
2022/01/11 07:19:19;;;;;;;8.98;4.40;;;;;;;5.00;100.00;102649.09;4951882;28;20047;-69
2022/01/11 07:21:47;;;;;;;5.63;2.90;;;;;;;5.05;100.00;102654.41;4947026;28;21102;-69
2022/01/11 07:24:15;;;;;;;13.38;4.72;;;;;;;5.13;100.00;102658.44;4948117;28;20110;-69
2022/01/11 07:26:44;;;;;;;11.52;3.83;;;;;;;5.06;100.00;102661.34;4980874;28;20110;-69
2022/01/11 07:29:10;;;;;;;16.90;5.68;;;;;;;4.99;100.00;102663.50;4951639;28;20484;-69
2022/01/11 07:31:38;;;;;;;6.32;3.47;;;;;;;4.99;100.00;102662.69;4947632;28;20408;-70
2022/01/11 07:34:06;;;;;;;16.00;5.28;;;;;;;5.01;100.00;102671.25;4951906;28;20027;-70
2022/01/11 07:36:33;;;;;;;6.60;2.92;;;;;;;5.25;100.00;102661.59;4973096;28;20035;-70
2022/01/11 07:39:04;;;;;;;19.85;4.78;;;;;;;5.06;100.00;102679.25;4981285;28;20379;-69
2022/01/11 07:41:31;;;;;;;10.40;3.38;;;;;;;4.97;100.00;102664.84;4942926;28;20031;-70
2022/01/11 07:44:08;;;;;;;8.82;3.50;;;;;;;5.04;100.00;102674.16;4958983;28;20031;-69
2022/01/11 07:46:39;;;;;;;7.35;4.20;;;;;;;5.01;100.00;102666.72;4945795;28;20033;-69
2022/01/11 07:49:08;;;;;;;13.00;4.63;;;;;;;5.07;100.00;102670.19;4944603;28;20653;-68
2022/01/11 07:51:34;;;;;;;10.68;3.92;;;;;;;5.13;100.00;102672.56;4942756;28;20039;-68
2022/01/11 07:54:03;;;;;;;11.68;4.22;;;;;;;4.99;100.00;102673.38;4972894;28;20106;-68
2022/01/11 07:56:28;;;;;;;14.18;4.68;;;;;;;4.98;100.00;102669.91;4949636;28;20432;-70
2022/01/11 07:58:55;;;;;;;10.68;3.83;;;;;;;4.91;100.00;102664.03;4973378;28;20035;-69
2022/01/11 08:01:24;;;;;;;14.18;4.93;;;;;;;5.06;100.00;102669.38;4972572;28;20126;-69
2022/01/11 08:03:51;;;;;;;13.40;3.05;;;;;;;4.97;100.00;102673.66;4946219;28;20027;-68
2022/01/11 08:06:26;;;;;;;8.32;3.53;;;;;;;4.90;100.00;102670.44;4944207;28;20118;-69
2022/01/11 08:09:01;;;;;;;7.90;3.63;;;;;;;4.86;100.00;102673.91;4946465;28;20512;-69
2022/01/11 08:11:27;;;;;;;11.13;4.57;;;;;;;4.80;100.00;102680.31;4946693;28;20617;-68
2022/01/11 08:13:53;;;;;;;5.47;2.97;;;;;;;4.91;100.00;102682.72;4924986;28;20114;-69
2022/01/11 08:16:21;;;;;;;11.07;4.10;;;;;;;4.91;100.00;102682.72;4950348;28;20027;-68
2022/01/11 08:18:49;;;;;;;13.25;4.32;;;;;;;4.88;100.00;102680.56;4949133;28;20035;-69
2022/01/11 08:21:14;;;;;;;8.55;3.63;;;;;;;5.06;100.00;102677.38;4979242;28;20045;-69
2022/01/11 08:23:40;;;;;;;8.23;3.42;;;;;;;5.12;100.00;102684.31;4980957;28;20110;-69
2022/01/11 08:26:06;;;;;;;8.75;3.88;;;;;;;5.05;100.00;102670.41;4953533;28;20027;-69
2022/01/11 08:28:32;;;;;;;10.52;4.47;;;;;;;5.04;100.00;102671.50;4942812;28;20090;-69
2022/01/11 08:31:01;;;;;;;8.68;3.22;;;;;;;5.07;100.00;102673.63;4981297;28;20034;-70
2022/01/11 08:33:35;;;;;;;10.85;3.88;;;;;;;4.95;100.00;102680.31;4937297;28;20035;-68
2022/01/11 08:36:01;;;;;;;9.18;3.15;;;;;;;5.11;100.00;102682.69;4939776;28;21419;-69
2022/01/11 08:38:28;;;;;;;11.43;3.92;;;;;;;5.10;100.00;102686.47;4956230;28;20055;-69
2022/01/11 08:40:54;;;;;;;18.42;4.85;;;;;;;5.00;100.00;102689.13;4945074;28;20444;-69
2022/01/11 08:43:20;;;;;;;6.97;2.22;;;;;;;5.07;100.00;102692.31;4946093;28;20259;-70
2022/01/11 08:45:46;;;;;;;12.32;3.47;;;;;;;5.11;100.00;102690.72;4960597;28;20106;-69
2022/01/11 08:48:15;;;;;;;14.38;4.38;;;;;;;5.09;100.00;102687.50;4972301;28;20038;-69
2022/01/11 08:50:56;;;;;;;9.18;4.03;;;;;;;4.99;100.00;102690.19;4947924;28;20027;-69
2022/01/11 08:53:25;;;;;;;6.50;3.67;;;;;;;5.00;100.00;102691.78;4935232;28;20047;-69
2022/01/11 08:55:52;;;;;;;9.73;3.58;;;;;;;5.14;100.00;102705.41;4953388;28;20027;-69
2022/01/11 08:58:20;;;;;;;11.38;3.33;;;;;;;5.15;100.00;102685.66;4949205;28;20046;-69
2022/01/11 09:00:49;;;;;;;15.70;2.78;;;;;;;5.32;100.00;102689.63;4947087;28;20133;-67
2022/01/11 09:03:15;;;;;;;10.40;4.60;;;;;;;5.39;100.00;102700.84;4950571;28;20178;-67
2022/01/11 09:05:45;;;;;;;9.93;3.53;;;;;;;5.38;100.00;102698.47;4969487;28;20035;-67
2022/01/11 09:08:11;;;;;;;9.57;4.15;;;;;;;5.33;100.00;102699.25;4961244;28;20092;-67
2022/01/11 09:10:37;;;;;;;9.00;3.08;;;;;;;5.28;100.00;102693.91;4944835;28;20514;-67
2022/01/11 09:13:03;;;;;;;11.80;4.55;;;;;;;5.24;100.00;102708.09;4948659;28;20039;-67
2022/01/11 09:15:29;;;;;;;10.25;3.15;;;;;;;5.28;100.00;102709.94;4947867;28;20028;-67
2022/01/11 09:17:55;;;;;;;11.40;4.13;;;;;;;5.33;100.00;102701.94;4946383;28;20019;-66
2022/01/11 09:20:21;;;;;;;9.52;3.35;;;;;;;5.27;100.00;102710.22;4974089;28;20039;-67
2022/01/11 09:22:48;;;;;;;7.75;3.50;;;;;;;5.30;100.00;102710.47;4954414;28;20510;-67
2022/01/11 09:25:15;;;;;;;13.10;3.55;;;;;;;5.18;100.00;102709.97;4969715;28;20038;-67
2022/01/11 09:27:51;;;;;;;6.32;2.47;;;;;;;5.30;100.00;102705.13;4973493;28;20117;-67
2022/01/11 09:30:19;;;;;;;6.55;3.45;;;;;;;5.26;100.00;102712.09;4944963;28;20023;-67
2022/01/11 09:32:48;;;;;;;15.30;3.72;;;;;;;5.52;100.00;102718.19;4954312;28;20042;-67
2022/01/11 09:35:14;;;;;;;11.98;3.90;;;;;;;5.53;100.00;102725.16;4949638;28;20035;-67
2022/01/11 09:37:46;;;;;;;9.18;3.88;;;;;;;5.48;100.00;102720.59;4953788;28;20058;-67
2022/01/11 09:40:12;;;;;;;7.32;3.72;;;;;;;5.50;100.00;102718.47;4985743;28;20101;-67
2022/01/11 09:42:40;;;;;;;12.93;3.65;;;;;;;5.50;100.00;102726.47;4950689;28;20395;-67
2022/01/11 09:45:12;;;;;;;11.10;3.70;;;;;;;5.58;100.00;102719.78;4950216;28;20036;-67
2022/01/11 09:47:42;;;;;;;9.07;2.72;;;;;;;5.48;100.00;102715.25;4973537;28;20032;-66
2022/01/11 09:50:12;;;;;;;10.85;3.75;;;;;;;5.50;100.00;102729.16;4948795;28;20040;-67
2022/01/11 09:52:44;;;;;;;13.43;3.88;;;;;;;5.49;100.00;102710.72;4951295;28;20068;-67
2022/01/11 09:55:13;;;;;;;9.02;4.68;;;;;;;5.65;100.00;102717.66;4945068;28;20039;-66
2022/01/11 09:57:43;;;;;;;9.82;3.33;;;;;;;5.65;100.00;102719.53;4959608;28;20027;-66
2022/01/11 10:00:31;;;;;;;5.93;2.72;;;;;;;5.80;100.00;102708.78;4964252;28;20055;-67
2022/01/11 10:03:10;;;;;;;8.07;3.20;;;;;;;5.67;100.00;102710.16;4947026;28;20042;-66
2022/01/11 10:05:51;;;;;;;6.97;3.92;;;;;;;5.71;100.00;102719.22;4970557;28;20031;-66
2022/01/11 10:08:23;;;;;;;7.53;3.45;;;;;;;5.87;100.00;102712.00;4940086;28;20023;-66
2022/01/11 10:10:52;;;;;;;9.77;3.20;;;;;;;5.66;100.00;102711.22;4969041;28;20122;-66
2022/01/11 10:13:32;;;;;;;5.32;3.17;;;;;;;5.65;100.00;102714.19;4970631;28;20031;-66
2022/01/11 10:16:23;;;;;;;5.83;2.50;;;;;;;5.65;100.00;102712.31;4953010;28;20040;-66
2022/01/11 10:18:52;;;;;;;8.68;3.03;;;;;;;5.78;100.00;102710.94;4953001;28;20297;-66
2022/01/11 10:21:37;;;;;;;9.32;3.05;;;;;;;5.89;100.00;102702.66;4950173;28;20555;-66
2022/01/11 10:24:25;;;;;;;6.65;2.88;;;;;;;5.88;99.65;102700.25;4959215;28;20028;-66
2022/01/11 10:26:56;;;;;;;10.90;2.92;;;;;;;5.89;99.07;102705.31;4976855;28;20440;-66
2022/01/11 10:29:36;;;;;;;8.60;3.40;;;;;;;5.66;99.61;102699.72;4949067;28;20468;-66
2022/01/11 10:32:27;;;;;;;9.48;3.47;;;;;;;5.50;100.00;102707.78;4949695;28;20496;-66
2022/01/11 10:35:02;;;;;;;10.18;3.13;;;;;;;5.56;100.00;102710.44;4983638;28;20043;-66
2022/01/11 10:37:37;;;;;;;5.28;2.70;;;;;;;5.56;100.00;102711.25;4942341;28;20559;-66
2022/01/11 10:40:17;;;;;;;6.40;2.78;;;;;;;5.78;98.26;102711.75;4963601;28;20169;-66
2022/01/11 10:42:49;;;;;;;4.68;2.08;;;;;;;5.78;98.30;102698.38;4983635;28;20784;-66
2022/01/11 10:45:16;;;;;;;4.63;2.08;;;;;;;5.72;99.68;102695.97;4962044;28;20134;-67
2022/01/11 10:47:47;;;;;;;9.30;2.75;;;;;;;5.88;98.91;102702.94;4952235;28;20039;-66
2022/01/11 10:50:28;;;;;;;4.80;2.28;;;;;;;5.71;98.54;102707.75;4955662;28;20046;-66
2022/01/11 10:52:59;;;;;;;10.90;3.22;;;;;;;5.65;99.43;102704.31;4958755;28;20125;-67
2022/01/11 10:55:29;;;;;;;7.82;2.88;;;;;;;5.67;98.13;102702.13;4950391;28;20050;-66
2022/01/11 10:57:57;;;;;;;4.68;2.85;;;;;;;5.53;98.42;102701.09;4950869;28;20031;-66
2022/01/11 11:00:30;;;;;;;7.05;2.42;;;;;;;5.55;99.20;102709.66;4954338;28;20031;-66
2022/01/11 11:03:03;;;;;;;5.75;2.47;;;;;;;5.66;99.25;102700.53;4949674;28;20034;-66
2022/01/11 11:05:32;;;;;;;4.65;2.45;;;;;;;5.70;99.22;102714.97;4982102;28;20089;-66
2022/01/11 11:08:07;;;;;;;9.80;2.78;;;;;;;5.60;99.41;102711.50;4950101;28;20043;-66
2022/01/11 11:10:49;;;;;;;6.95;3.10;;;;;;;5.64;100.00;102713.38;4953730;28;20140;-66
2022/01/11 11:13:25;;;;;;;5.95;3.22;;;;;;;5.70;99.16;102720.31;4981166;28;20027;-67
2022/01/11 11:15:54;;;;;;;5.18;2.58;;;;;;;5.60;99.86;102711.50;4951965;28;20027;-66
2022/01/11 11:18:47;;;;;;;4.97;2.60;;;;;;;5.62;100.00;102712.03;4945572;28;20023;-66
2022/01/11 11:21:22;;;;;;;5.03;2.15;;;;;;;5.71;100.00;102713.09;4985367;23;20110;-68
2022/01/11 11:23:57;;;;;;;5.35;2.60;;;;;;;5.79;100.00;102712.56;4967274;28;20042;-67
2022/01/11 11:26:26;;;;;;;4.70;2.08;;;;;;;5.78;98.84;102710.94;4982661;28;20038;-67
2022/01/11 11:28:52;;;;;;;4.97;2.92;;;;;;;5.72;98.86;102712.00;4972629;28;20077;-68
2022/01/11 11:31:19;;;;;;;4.88;2.63;;;;;;;5.59;100.00;102707.25;4968754;28;20125;-67
2022/01/11 11:33:45;;;;;;;10.50;3.38;;;;;;;5.65;100.00;102704.31;4971554;28;20046;-66
2022/01/11 11:36:14;;;;;;;10.70;2.47;;;;;;;5.63;99.10;102697.63;4966758;28;20038;-66